createdAt,value
2023-01-28T00:01:44.634Z,69.86
2023-01-28T00:04:12.777Z,67.65
2023-01-28T00:06:40.615Z,65.12
2023-01-28T00:09:08.800Z,63.75
2023-01-28T00:11:37.055Z,62.97
2023-01-28T00:14:05.065Z,62.55
2023-01-28T00:16:33.116Z,62.42
2023-01-28T00:19:00.681Z,60.62
2023-01-28T00:21:28.412Z,62.91
2023-01-28T00:23:57.030Z,61.34
2023-01-28T00:26:25.436Z,59.79
2023-01-28T00:28:53.177Z,60.20
2023-01-28T00:31:23.909Z,60.74
2023-01-28T00:33:52.801Z,61.51
2023-01-28T00:36:23.048Z,60.46
2023-01-28T00:38:52.589Z,58.99
2023-01-28T00:41:23.776Z,59.07
2023-01-28T00:43:53.505Z,59.54
2023-01-28T00:46:22.986Z,58.19
2023-01-28T00:48:50.728Z,58.23
2023-01-28T00:51:20.716Z,59.46
2023-01-28T00:53:50.426Z,58.39
2023-01-28T00:56:19.613Z,59.63
2023-01-28T00:58:48.386Z,58.98
2023-01-28T01:01:21.718Z,57.61
2023-01-28T01:03:57.600Z,58.06
2023-01-28T01:06:25.904Z,58.02
2023-01-28T01:08:53.383Z,57.96
2023-01-28T01:11:21.245Z,58.02
2023-01-28T01:13:54.956Z,58.08
2023-01-28T01:16:24.931Z,57.53
2023-01-28T01:18:54.297Z,56.46
2023-01-28T01:21:25.127Z,57.30
2023-01-28T01:23:53.925Z,56.95
2023-01-28T01:26:23.589Z,56.08
2023-01-28T01:28:52.460Z,56.61
2023-01-28T01:31:21.982Z,55.67
2023-01-28T01:33:52.181Z,56.55
2023-01-28T01:36:22.252Z,56.42
2023-01-28T01:38:55.395Z,56.02
2023-01-28T01:41:29.536Z,55.73
2023-01-28T01:44:02.979Z,56.90
2023-01-28T01:46:31.285Z,57.28
2023-01-28T01:49:06.551Z,57.97
2023-01-28T01:51:36.557Z,57.02
2023-01-28T01:54:05.651Z,57.93
2023-01-28T01:56:38.665Z,56.59
2023-01-28T01:59:12.014Z,56.21
2023-01-28T02:01:41.540Z,57.11
2023-01-28T02:04:17.453Z,57.72
2023-01-28T02:06:48.529Z,56.21
2023-01-28T02:09:32.504Z,55.73
2023-01-28T02:12:11.310Z,56.75
2023-01-28T02:14:44.247Z,56.10
2023-01-28T02:17:12.531Z,56.69
2023-01-28T02:20:07.991Z,56.44
2023-01-28T02:22:39.086Z,58.57
2023-01-28T02:25:34.140Z,59.21
2023-01-28T02:28:27.354Z,59.64
2023-01-28T02:31:04.743Z,58.70
2023-01-28T02:33:50.369Z,57.90
2023-01-28T02:36:41.912Z,57.34
2023-01-28T02:39:19.007Z,56.31
2023-01-28T02:41:52.164Z,57.17
2023-01-28T02:44:20.421Z,59.45
2023-01-28T02:47:06.593Z,57.66
2023-01-28T02:49:41.314Z,57.38
2023-01-28T02:53:20.987Z,57.74
2023-01-28T02:56:29.546Z,60.14
2023-01-28T02:59:32.359Z,60.67
2023-01-28T03:02:20.534Z,62.36
2023-01-28T03:04:57.121Z,64.27
2023-01-28T03:07:30.301Z,66.10
2023-01-28T03:10:04.368Z,69.42
2023-01-28T03:12:54.194Z,67.80
2023-01-28T03:16:01.936Z,68.85
2023-01-28T03:19:00.124Z,71.72
2023-01-28T03:21:53.438Z,73.24
2023-01-28T03:24:44.834Z,73.93
2023-01-28T03:27:37.152Z,73.42
2023-01-28T03:30:33.442Z,73.31
2023-01-28T03:33:25.209Z,74.75
2023-01-28T03:36:12.263Z,77.64
2023-01-28T03:38:42.323Z,76.57
2023-01-28T03:41:12.919Z,74.11
2023-01-28T03:43:41.872Z,72.67
2023-01-28T03:46:10.117Z,71.83
2023-01-28T03:48:37.750Z,72.60
2023-01-28T03:51:08.109Z,73.88
2023-01-28T03:53:36.465Z,71.98
2023-01-28T03:56:04.694Z,71.45
2023-01-28T03:58:51.921Z,72.38
2023-01-28T04:01:20.846Z,73.13
2023-01-28T04:03:49.171Z,72.50
2023-01-28T04:06:24.321Z,73.88
2023-01-28T04:09:07.635Z,74.30
2023-01-28T04:11:54.484Z,75.31
2023-01-28T04:14:27.615Z,75.96
2023-01-28T04:17:03.988Z,74.91
2023-01-28T04:19:37.368Z,74.77
2023-01-28T04:22:10.666Z,74.97
2023-01-28T04:24:39.772Z,75.25
2023-01-28T04:27:08.351Z,74.35
2023-01-28T04:29:36.124Z,73.26
2023-01-28T04:32:22.669Z,72.90
2023-01-28T04:35:04.249Z,76.27
2023-01-28T04:37:58.998Z,73.36
2023-01-28T04:40:41.119Z,73.72
2023-01-28T04:43:20.816Z,73.69
2023-01-28T04:45:51.599Z,74.23
2023-01-28T04:48:42.911Z,74.72
2023-01-28T04:51:42.991Z,74.69
2023-01-28T04:54:33.213Z,76.95
2023-01-28T04:57:03.619Z,78.14
2023-01-28T04:59:32.597Z,76.49
2023-01-28T05:02:00.739Z,76.58
2023-01-28T05:04:28.841Z,75.09
2023-01-28T05:06:58.541Z,76.16
2023-01-28T05:09:31.512Z,76.71
2023-01-28T05:11:59.104Z,78.49
2023-01-28T05:14:26.703Z,77.97
2023-01-28T05:17:10.027Z,79.10
2023-01-28T05:19:37.643Z,78.18
2023-01-28T05:22:09.688Z,78.93
2023-01-28T05:24:42.477Z,78.68
2023-01-28T05:27:10.255Z,77.92
2023-01-28T05:29:37.823Z,80.20
2023-01-28T05:32:05.754Z,83.41
2023-01-28T05:34:33.995Z,84.34
2023-01-28T05:37:08.176Z,84.94
2023-01-28T05:39:38.007Z,87.08
2023-01-28T05:42:06.231Z,86.96
2023-01-28T05:44:37.975Z,86.89
2023-01-28T05:47:24.405Z,88.95
2023-01-28T05:49:57.540Z,88.81
2023-01-28T05:52:43.845Z,88.77
2023-01-28T05:55:21.009Z,90.62
2023-01-28T05:57:49.812Z,90.16
2023-01-28T06:00:20.000Z,91.02
2023-01-28T06:02:47.491Z,90.85
2023-01-28T06:05:17.002Z,93.95
2023-01-28T06:07:45.801Z,93.51
2023-01-28T06:10:18.124Z,93.12
2023-01-28T06:12:46.387Z,91.80
2023-01-28T06:15:33.474Z,92.22
2023-01-28T06:18:03.743Z,93.82
2023-01-28T06:20:34.720Z,100.00
2023-01-28T06:23:02.519Z,100.00
2023-01-28T06:25:30.114Z,100.00
2023-01-28T06:28:01.689Z,100.00
2023-01-28T06:30:29.234Z,100.00
2023-01-28T06:32:57.472Z,100.00
2023-01-28T06:35:25.115Z,100.00
2023-01-28T06:37:53.779Z,100.00
2023-01-28T06:40:23.085Z,99.79
2023-01-28T06:42:50.709Z,97.72
2023-01-28T06:45:19.216Z,97.61
2023-01-28T06:47:46.771Z,96.22
2023-01-28T06:50:15.051Z,96.66
2023-01-28T06:52:42.964Z,97.40
2023-01-28T06:55:10.730Z,97.63
2023-01-28T06:57:42.629Z,97.13
2023-01-28T07:00:13.532Z,97.72
2023-01-28T07:02:42.233Z,97.82
2023-01-28T07:05:10.346Z,99.44
2023-01-28T07:07:41.426Z,98.83
2023-01-28T07:10:11.555Z,100.00
2023-01-28T07:12:39.851Z,99.37
2023-01-28T07:15:08.654Z,99.08
2023-01-28T07:17:36.333Z,98.59
2023-01-28T07:20:05.395Z,97.76
2023-01-28T07:22:33.296Z,99.40
2023-01-28T07:25:01.437Z,100.00
2023-01-28T07:27:29.435Z,99.12
2023-01-28T07:29:57.415Z,98.09
2023-01-28T07:32:27.487Z,96.02
2023-01-28T07:34:55.124Z,93.80
2023-01-28T07:37:22.966Z,93.13
2023-01-28T07:39:51.086Z,92.65
2023-01-28T07:42:18.639Z,91.88
2023-01-28T07:44:47.964Z,92.44
2023-01-28T07:47:15.969Z,92.48
2023-01-28T07:49:44.160Z,88.59
2023-01-28T07:52:11.837Z,87.99
2023-01-28T07:54:39.429Z,87.52
2023-01-28T07:57:09.977Z,87.07
2023-01-28T07:59:38.352Z,84.39
2023-01-28T08:02:06.188Z,82.88
2023-01-28T08:04:33.868Z,79.71
2023-01-28T08:07:01.419Z,77.14
2023-01-28T08:09:29.476Z,74.04
2023-01-28T08:11:57.476Z,73.36
2023-01-28T08:14:25.311Z,73.19
2023-01-28T08:16:52.882Z,69.15
2023-01-28T08:19:21.944Z,68.62
2023-01-28T08:21:49.554Z,66.79
2023-01-28T08:24:17.930Z,66.33
2023-01-28T08:26:48.913Z,64.29
2023-01-28T08:29:16.774Z,65.69
2023-01-28T08:31:44.352Z,65.42
2023-01-28T08:34:12.264Z,66.67
2023-01-28T08:36:40.325Z,66.89
2023-01-28T08:39:07.903Z,68.27
2023-01-28T08:41:35.871Z,68.05
2023-01-28T08:44:03.636Z,70.01
2023-01-28T08:46:31.761Z,67.21
2023-01-28T08:48:59.764Z,66.00
2023-01-28T08:51:27.720Z,63.94
2023-01-28T08:53:55.258Z,61.37
2023-01-28T08:56:23.770Z,61.72
2023-01-28T08:58:51.795Z,60.53
2023-01-28T09:01:19.481Z,59.52
2023-01-28T09:03:47.069Z,58.50
2023-01-28T09:06:14.791Z,59.62
2023-01-28T09:08:42.383Z,57.10
2023-01-28T09:11:09.920Z,54.32
2023-01-28T09:13:37.779Z,52.84
2023-01-28T09:16:06.492Z,50.17
2023-01-28T09:18:34.132Z,47.78
2023-01-28T09:21:05.667Z,47.02
2023-01-28T09:23:37.451Z,44.66
2023-01-28T09:26:06.478Z,45.60
2023-01-28T09:28:34.081Z,44.06
2023-01-28T09:31:12.870Z,43.49
2023-01-28T09:33:41.154Z,42.82
2023-01-28T09:36:11.851Z,40.15
2023-01-28T09:38:39.582Z,40.52
2023-01-28T09:41:28.598Z,40.83
2023-01-28T09:44:17.801Z,41.07
2023-01-28T09:46:45.878Z,40.49
2023-01-28T09:49:49.375Z,39.07
2023-01-28T09:52:21.016Z,39.01
2023-01-28T09:54:56.359Z,40.10
2023-01-28T09:57:26.182Z,40.54
2023-01-28T09:59:54.142Z,39.24
2023-01-28T10:02:49.771Z,39.89
2023-01-28T10:05:20.201Z,39.55
2023-01-28T10:08:07.350Z,39.05
2023-01-28T10:10:42.174Z,37.55
2023-01-28T10:13:24.220Z,38.65
2023-01-28T10:15:58.943Z,39.12
2023-01-28T10:18:50.889Z,39.07
2023-01-28T10:21:25.753Z,39.56
2023-01-28T10:24:01.635Z,38.18
2023-01-28T10:26:49.442Z,38.25
2023-01-28T10:29:24.302Z,36.61
2023-01-28T10:32:00.288Z,38.97
2023-01-28T10:34:28.528Z,37.53
2023-01-28T10:36:57.766Z,37.86
2023-01-28T10:39:26.675Z,38.10
2023-01-28T10:41:58.676Z,37.55
2023-01-28T10:44:42.071Z,37.37
2023-01-28T10:47:20.485Z,36.55
2023-01-28T10:49:53.366Z,37.38
2023-01-28T10:52:21.429Z,37.46
2023-01-28T10:54:59.900Z,36.66
2023-01-28T10:57:28.276Z,36.67
2023-01-28T10:59:56.528Z,36.48
2023-01-28T11:02:35.965Z,36.29
2023-01-28T11:05:21.836Z,36.75
2023-01-28T11:07:50.203Z,36.71
2023-01-28T11:10:37.893Z,36.93
2023-01-28T11:13:14.874Z,35.54
2023-01-28T11:15:50.177Z,35.64
2023-01-28T11:18:30.361Z,36.50
2023-01-28T11:21:16.832Z,36.89
2023-01-28T11:24:02.598Z,37.92
2023-01-28T11:26:37.037Z,36.47
2023-01-28T11:29:05.411Z,35.81
2023-01-28T11:31:42.704Z,35.23
2023-01-28T11:34:17.715Z,35.17
2023-01-28T11:36:54.416Z,34.17
2023-01-28T11:39:28.662Z,34.71
2023-01-28T11:42:11.764Z,34.23
2023-01-28T11:44:40.665Z,34.25
2023-01-28T11:47:25.204Z,33.34
2023-01-28T11:50:11.455Z,33.66
2023-01-28T11:53:06.038Z,33.56
2023-01-28T11:55:46.217Z,32.39
2023-01-28T11:58:29.624Z,31.29
2023-01-28T12:01:13.213Z,31.75
2023-01-28T12:04:03.969Z,30.81
2023-01-28T12:06:41.002Z,32.15
2023-01-28T12:09:35.308Z,31.81
2023-01-28T12:12:12.068Z,31.87
2023-01-28T12:15:01.066Z,33.64
2023-01-28T12:17:53.580Z,33.15
2023-01-28T12:20:52.073Z,32.36
2023-01-28T12:23:41.794Z,32.80
2023-01-28T12:26:37.135Z,35.20
2023-01-28T12:29:35.861Z,34.40
2023-01-28T12:32:30.872Z,34.52
2023-01-28T12:35:07.994Z,34.26
2023-01-28T12:38:00.157Z,33.17
2023-01-28T12:40:46.821Z,32.67
2023-01-28T12:43:27.490Z,32.99
2023-01-28T12:46:03.600Z,35.06
2023-01-28T12:48:41.239Z,34.11
2023-01-28T12:51:18.854Z,34.54
2023-01-28T12:54:02.592Z,36.31
2023-01-28T12:56:35.648Z,34.77
2023-01-28T12:59:15.524Z,35.41
2023-01-28T13:02:01.597Z,32.63
2023-01-28T13:04:40.174Z,30.47
2023-01-28T13:07:19.380Z,30.59
2023-01-28T13:09:55.374Z,30.83
2023-01-28T13:12:23.868Z,29.55
2023-01-28T13:14:54.262Z,31.36
2023-01-28T13:17:29.052Z,33.00
2023-01-28T13:19:58.044Z,33.76
2023-01-28T13:22:36.016Z,33.37
2023-01-28T13:25:27.179Z,35.20
2023-01-28T13:28:04.388Z,34.60
2023-01-28T13:30:49.362Z,32.31
2023-01-28T13:33:30.522Z,31.17
2023-01-28T13:36:07.681Z,29.02
2023-01-28T13:38:36.436Z,30.44
2023-01-28T13:41:07.695Z,33.28
2023-01-28T13:43:38.704Z,34.88
2023-01-28T13:46:10.490Z,36.37
2023-01-28T13:48:52.119Z,36.71
2023-01-28T13:51:35.624Z,35.39
2023-01-28T13:54:12.693Z,36.09
2023-01-28T13:57:03.476Z,36.30
2023-01-28T13:59:44.407Z,35.98
2023-01-28T14:02:30.671Z,35.57
2023-01-28T14:05:22.440Z,35.12
2023-01-28T14:08:08.525Z,34.89
2023-01-28T14:10:39.079Z,33.05
2023-01-28T14:13:28.203Z,29.48
2023-01-28T14:16:12.952Z,27.23
2023-01-28T14:18:45.756Z,25.29
2023-01-28T14:21:17.387Z,23.76
2023-01-28T14:23:48.763Z,22.12
2023-01-28T14:26:43.222Z,22.73
2023-01-28T14:29:10.893Z,22.49
2023-01-28T14:31:39.830Z,21.50
2023-01-28T14:34:28.963Z,21.41
2023-01-28T14:37:08.314Z,22.31
2023-01-28T14:39:44.864Z,21.97
2023-01-28T14:42:49.593Z,21.24
2023-01-28T14:45:17.867Z,23.00
2023-01-28T14:47:51.091Z,23.38
2023-01-28T14:50:39.810Z,23.60
2023-01-28T14:53:43.974Z,25.75
2023-01-28T14:56:36.494Z,25.95
2023-01-28T14:59:38.086Z,26.50
2023-01-28T15:02:42.958Z,25.69
2023-01-28T15:05:20.116Z,25.78
2023-01-28T15:07:49.206Z,25.83
2023-01-28T15:10:18.891Z,26.30
2023-01-28T15:12:54.556Z,27.52
2023-01-28T15:15:34.905Z,32.02
2023-01-28T15:18:08.467Z,34.76
2023-01-28T15:20:36.261Z,36.55
2023-01-28T15:23:07.594Z,38.42
2023-01-28T15:25:35.712Z,38.26
2023-01-28T15:28:03.686Z,38.94
2023-01-28T15:30:32.680Z,39.19
2023-01-28T15:33:15.183Z,39.39
2023-01-28T15:35:54.503Z,39.67
2023-01-28T15:38:23.343Z,40.11
2023-01-28T15:41:02.396Z,40.21
2023-01-28T15:43:36.630Z,40.42
2023-01-28T15:46:11.614Z,41.59
2023-01-28T15:48:44.258Z,41.56
2023-01-28T15:51:25.745Z,41.92
2023-01-28T15:53:58.297Z,42.09
2023-01-28T15:56:29.276Z,42.91
2023-01-28T15:59:08.649Z,43.64
2023-01-28T16:01:36.821Z,44.12
2023-01-28T16:04:09.639Z,44.89
2023-01-28T16:06:39.758Z,45.22
2023-01-28T16:09:28.195Z,45.35
2023-01-28T16:12:04.210Z,45.85
2023-01-28T16:14:40.676Z,46.21
2023-01-28T16:17:09.655Z,46.70
2023-01-28T16:19:41.735Z,46.83
2023-01-28T16:22:23.309Z,47.95
2023-01-28T16:24:53.272Z,48.28
2023-01-28T16:27:33.472Z,48.67
2023-01-28T16:30:01.658Z,49.32
2023-01-28T16:32:37.830Z,51.18
2023-01-28T16:35:18.215Z,51.46
2023-01-28T16:37:47.699Z,51.63
2023-01-28T16:40:20.857Z,52.76
2023-01-28T16:42:49.080Z,53.24
2023-01-28T16:45:23.291Z,53.88
2023-01-28T16:47:52.145Z,56.64
2023-01-28T16:50:22.034Z,59.31
2023-01-28T16:52:51.652Z,58.89
2023-01-28T16:55:21.379Z,58.94
2023-01-28T16:57:53.130Z,59.47
2023-01-28T17:00:26.044Z,60.56
2023-01-28T17:02:54.604Z,61.03
2023-01-28T17:05:23.293Z,62.92
2023-01-28T17:07:51.131Z,62.28
2023-01-28T17:10:20.581Z,62.88
2023-01-28T17:12:48.960Z,63.85
2023-01-28T17:15:17.151Z,64.64
2023-01-28T17:17:49.409Z,63.62
2023-01-28T17:20:17.443Z,64.13
2023-01-28T17:22:45.663Z,64.09
2023-01-28T17:25:14.866Z,66.09
2023-01-28T17:27:43.027Z,68.42
2023-01-28T17:30:11.291Z,67.46
2023-01-28T17:32:39.305Z,66.66
2023-01-28T17:35:07.518Z,70.49
2023-01-28T17:37:38.374Z,70.58
2023-01-28T17:40:06.602Z,68.97
2023-01-28T17:42:34.154Z,69.55
2023-01-28T17:45:03.291Z,69.28
2023-01-28T17:47:31.907Z,70.03
2023-01-28T17:50:00.536Z,67.96
2023-01-28T17:52:28.241Z,70.53
2023-01-28T17:54:55.872Z,70.37
2023-01-28T17:57:23.495Z,67.04
2023-01-28T17:59:51.076Z,67.09
2023-01-28T18:02:19.052Z,68.97
2023-01-28T18:04:46.725Z,70.01
2023-01-28T18:07:14.726Z,71.71
2023-01-28T18:09:47.518Z,72.95
2023-01-28T18:12:16.613Z,74.20
2023-01-28T18:14:44.230Z,75.37
2023-01-28T18:17:11.941Z,74.95
2023-01-28T18:19:39.855Z,74.33
2023-01-28T18:22:08.670Z,75.52
2023-01-28T18:24:36.465Z,73.48
2023-01-28T18:27:04.277Z,73.74
2023-01-28T18:29:32.065Z,75.91
2023-01-28T18:31:59.796Z,77.28
2023-01-28T18:34:31.570Z,77.51
2023-01-28T18:36:59.364Z,76.20
2023-01-28T18:39:30.358Z,75.05
2023-01-28T18:41:59.121Z,75.53
2023-01-28T18:44:30.194Z,74.85
2023-01-28T18:46:57.953Z,74.73
2023-01-28T18:49:26.009Z,74.56
2023-01-28T18:51:54.175Z,77.00
2023-01-28T18:54:23.211Z,76.98
2023-01-28T18:56:51.315Z,77.51
2023-01-28T18:59:19.100Z,79.61
2023-01-28T19:01:48.020Z,79.32
2023-01-28T19:04:16.681Z,80.92
2023-01-28T19:06:45.291Z,80.84
2023-01-28T19:09:14.756Z,80.83
2023-01-28T19:11:43.114Z,79.83
2023-01-28T19:14:14.394Z,80.03
2023-01-28T19:16:42.813Z,80.97
2023-01-28T19:19:11.100Z,81.41
2023-01-28T19:21:38.728Z,80.53
2023-01-28T19:24:09.799Z,80.41
2023-01-28T19:26:38.159Z,83.72
2023-01-28T19:29:11.023Z,82.40
2023-01-28T19:31:39.987Z,83.18
2023-01-28T19:34:13.082Z,83.28
2023-01-28T19:36:42.323Z,84.29
2023-01-28T19:39:12.144Z,83.39
2023-01-28T19:41:40.271Z,82.26
2023-01-28T19:44:08.679Z,82.47
2023-01-28T19:46:36.580Z,83.74
2023-01-28T19:49:06.536Z,84.80
2023-01-28T19:51:34.853Z,83.43
2023-01-28T19:54:02.808Z,83.46
2023-01-28T19:56:30.668Z,86.05
2023-01-28T19:58:58.238Z,85.20
2023-01-28T20:01:30.136Z,85.47
2023-01-28T20:04:00.177Z,86.33
2023-01-28T20:06:30.450Z,87.20
2023-01-28T20:09:07.820Z,86.75
2023-01-28T20:11:36.033Z,87.03
2023-01-28T20:14:04.064Z,88.51
2023-01-28T20:16:33.970Z,88.92
2023-01-28T20:19:08.337Z,90.26
2023-01-28T20:21:37.179Z,90.32
2023-01-28T20:24:06.648Z,89.65
2023-01-28T20:26:37.480Z,90.23
2023-01-28T20:29:11.395Z,91.11
2023-01-28T20:31:40.853Z,91.40
2023-01-28T20:34:16.674Z,91.47
2023-01-28T20:36:44.833Z,90.13
2023-01-28T20:39:13.666Z,89.58
2023-01-28T20:41:41.212Z,89.52
2023-01-28T20:44:09.468Z,89.79
2023-01-28T20:46:38.877Z,89.87
2023-01-28T20:49:07.136Z,90.09
2023-01-28T20:51:35.939Z,89.31
2023-01-28T20:54:04.397Z,89.04
2023-01-28T20:56:32.167Z,89.52
2023-01-28T20:59:04.689Z,89.64
2023-01-28T21:01:35.310Z,89.26
2023-01-28T21:04:10.560Z,88.72
2023-01-28T21:06:40.111Z,89.38
2023-01-28T21:09:08.256Z,88.62
2023-01-28T21:11:36.528Z,89.24
2023-01-28T21:14:04.219Z,87.70
2023-01-28T21:16:32.295Z,88.30
2023-01-28T21:19:00.048Z,89.13
2023-01-28T21:21:29.297Z,89.63
2023-01-28T21:23:59.988Z,90.17
2023-01-28T21:26:28.243Z,91.29
2023-01-28T21:28:56.362Z,91.02
2023-01-28T21:31:25.779Z,91.24
2023-01-28T21:33:56.107Z,90.62
2023-01-28T21:36:25.309Z,91.62
2023-01-28T21:38:54.966Z,89.98
2023-01-28T21:41:22.756Z,89.59
2023-01-28T21:43:54.245Z,91.56
2023-01-28T21:46:32.938Z,91.91
2023-01-28T21:49:03.388Z,91.41
2023-01-28T21:51:46.048Z,90.81
2023-01-28T21:54:19.273Z,91.78
2023-01-28T21:56:49.508Z,90.74
2023-01-28T21:59:30.856Z,92.63
2023-01-28T22:02:07.457Z,92.87
2023-01-28T22:04:38.190Z,92.61
2023-01-28T22:07:09.541Z,93.47
2023-01-28T22:09:38.074Z,91.29
2023-01-28T22:12:10.103Z,90.46
2023-01-28T22:14:39.440Z,92.37
2023-01-28T22:17:09.192Z,91.75
2023-01-28T22:19:37.915Z,90.28
2023-01-28T22:22:05.995Z,92.06
2023-01-28T22:24:34.022Z,91.47
2023-01-28T22:27:01.839Z,92.96
2023-01-28T22:29:29.826Z,93.01
2023-01-28T22:31:57.391Z,91.90
2023-01-28T22:34:25.301Z,92.95
2023-01-28T22:36:53.311Z,92.73
2023-01-28T22:39:41.654Z,93.85
2023-01-28T22:42:23.071Z,94.43
2023-01-28T22:44:50.740Z,94.49
2023-01-28T22:47:19.270Z,95.31
2023-01-28T22:49:46.757Z,95.20
2023-01-28T22:52:14.237Z,94.36
2023-01-28T22:54:42.715Z,94.69
2023-01-28T22:57:10.363Z,95.20
2023-01-28T22:59:41.792Z,95.38
2023-01-28T23:02:10.069Z,96.71
2023-01-28T23:04:37.709Z,95.92
2023-01-28T23:07:05.657Z,94.97
2023-01-28T23:09:35.520Z,93.95
2023-01-28T23:12:03.085Z,94.09
2023-01-28T23:14:49.730Z,94.64
2023-01-28T23:17:37.055Z,94.87
2023-01-28T23:20:23.696Z,94.78
2023-01-28T23:23:10.106Z,96.03
2023-01-28T23:25:38.168Z,95.82
2023-01-28T23:28:06.095Z,95.73
2023-01-28T23:30:34.687Z,96.45
2023-01-28T23:33:03.400Z,96.77
2023-01-28T23:35:32.753Z,95.43
2023-01-28T23:38:00.291Z,94.41
2023-01-28T23:40:28.409Z,94.14
2023-01-28T23:42:56.321Z,93.98
2023-01-28T23:45:24.532Z,94.67
2023-01-28T23:47:52.548Z,95.68
2023-01-28T23:50:21.121Z,97.44
2023-01-28T23:52:49.249Z,99.07
2023-01-28T23:55:17.074Z,97.68
2023-01-28T23:57:44.670Z,97.82
